Flight Track Log - Related Links

Times and Time Zones

All times are in EDT time to prevent confusion due to time zone crossing. See the N3KP flight status page for this flight to view local times or setup timezone preferences in your user account.

Time Position Orientation Groundspeed Altitude Reporting Facility
EDT Latitude Longitude Course Direction KTS km/h feet Rate Location/Type
Wed 14:19:51 37.6656 -82.6875 316° Northwest 101 187 5,200  Level Indianapolis Center
Wed 14:20:52 37.6867 -82.7114 318° Northwest 102 188 5,900 634 Climbing Indianapolis Center
Wed 14:21:54 37.7069 -82.7339 319° Northwest 99 183 6,500 585 Climbing Indianapolis Center
Wed 14:22:55 37.7267 -82.7567 318° Northwest 98 182 7,100 634 Climbing Indianapolis Center
Wed 14:23:57 37.7514 -82.7844 318° Northwest 100 185 7,800 629 Climbing Indianapolis Center
Wed 14:24:00 37.7438 -82.7771 322° Northwest  Level FlightAware Approximate
Wed 14:24:59 37.7728 -82.8086 318° Northwest 103 192 8,400  Level Indianapolis Center
Wed 14:26:00 37.7939 -82.8331 318° Northwest 102 188 8,900 585 Climbing Indianapolis Center
Wed 14:27:02 37.8156 -82.8572 319° Northwest 104 193 9,600 629 Climbing Indianapolis Center
Wed 14:28:04 37.8367 -82.8828 316° Northwest 105 195 10,200 537 Climbing Indianapolis Center
Wed 14:29:05 37.8575 -82.9072 317° Northwest 104 193 10,700 488 Climbing Indianapolis Center
Wed 14:30:07 37.8789 -82.9314 318° Northwest 104 193 11,200 581 Climbing Indianapolis Center
Wed 14:31:09 37.9039 -82.9603 318° Northwest 103 192 11,900 387 Climbing Indianapolis Center
Wed 14:32:11 37.9256 -82.9856 317° Northwest 105 195 12,000 49 Climbing Indianapolis Center
Wed 14:33:12 37.9547 -83.0164 320° Northwest 126 233 12,000  Level Indianapolis Center
Wed 14:34:14 37.9853 -83.0542 316° Northwest 147 272 12,000  Level Indianapolis Center
Wed 14:35:16 38.0153 -83.0908 316° Northwest 150 278 12,000  Level Indianapolis Center
Wed 14:36:17 38.0450 -83.1258 317° Northwest 147 272 12,000  Level Indianapolis Center
Wed 14:37:19 38.0800 -83.1650 319° Northwest 146 270 12,000  Level Indianapolis Center
Wed 14:38:21 38.1086 -83.1989 317° Northwest 143 266 12,000  Level Indianapolis Center
Wed 14:39:22 38.1367 -83.2325 317° Northwest 141 261 12,000  Level Indianapolis Center
Wed 14:40:24 38.1667 -83.2653 319° Northwest 142 262 12,000  Level Indianapolis Center
Wed 14:41:26 38.1950 -83.2997 316° Northwest 142 262 12,000  Level Indianapolis Center
Wed 14:42:28 38.2247 -83.3331 319° Northwest 142 262 12,000  Level Indianapolis Center
Wed 14:43:29 38.2586 -83.3717 318° Northwest 141 261 12,000  Level Indianapolis Center
Wed 14:44:31 38.2875 -83.4069 316° Northwest 142 262 12,000  Level Indianapolis Center
Wed 14:45:33 38.3147 -83.4397 317° Northwest 138 256 12,000  Level Indianapolis Center
Wed 14:46:35 38.3453 -83.4733 319° Northwest 143 266 12,000  Level Indianapolis Center
Wed 14:47:37 38.3736 -83.5092 315° West 143 266 12,000  Level Indianapolis Center
Wed 14:48:38 38.4072 -83.5494 317° Northwest 141 261 12,000  Level Indianapolis Center
Wed 14:49:40 38.4367 -83.5836 318° Northwest 143 266 12,000  Level Indianapolis Center
Wed 14:50:42 38.4658 -83.6189 317° Northwest 144 267 12,000  Level Indianapolis Center
Wed 14:51:44 38.4950 -83.6528 318° Northwest 143 266 12,000  Level Indianapolis Center
Wed 14:52:46 38.5264 -83.6858 321° Northwest 146 270 12,000  Level Indianapolis Center
Wed 14:53:48 38.5553 -83.7222 315° West 145 269 12,000  Level Indianapolis Center
Wed 14:54:49 38.5889 -83.7625 317° Northwest 144 267 12,000  Level Indianapolis Center
Wed 14:55:51 38.6192 -83.7975 318° Northwest 146 270 12,000  Level Indianapolis Center
Wed 14:56:53 38.6469 -83.8322 316° Northwest 147 272 12,000  Level Indianapolis Center
Wed 14:57:55 38.6767 -83.8669 318° Northwest 145 269 12,000  Level Indianapolis Center
Wed 14:58:57 38.7072 -83.9039 317° Northwest 148 274 12,000  Level Indianapolis Center
Wed 14:59:59 38.7369 -83.9414 315° West 148 274 12,000  Level Indianapolis Center
Wed 15:01:01 38.7714 -83.9806 318° Northwest 145 269 12,000  Level Indianapolis Center
Wed 15:02:02 38.8028 -84.0167 318° Northwest 148 274 12,000  Level Indianapolis Center
Wed 15:03:04 38.8331 -84.0536 316° Northwest 148 274 12,000  Level Indianapolis Center
Wed 15:04:06 38.8633 -84.0911 316° Northwest 150 278 12,000  Level Indianapolis Center
Wed 15:05:08 38.8925 -84.1272 316° Northwest 145 269 12,000  Level Indianapolis Center
Wed 15:06:10 38.9233 -84.1619 319° Northwest 146 270 12,000  Level Indianapolis Center
Wed 15:07:12 38.9531 -84.1997 315° West 147 272 12,000  Level Indianapolis Center
Wed 15:08:14 38.9842 -84.2353 318° Northwest 148 274 12,000  Level Indianapolis Center
Wed 15:09:16 39.0189 -84.2772 317° Northwest 147 272 12,000  Level Indianapolis Center
Wed 15:10:18 39.0494 -84.3131 318° Northwest 147 272 12,000  Level Indianapolis Center
Wed 15:11:20 39.0797 -84.3486 318° Northwest 146 270 12,000  Level Indianapolis Center
Wed 15:12:22 39.1089 -84.3869 314° West 147 272 12,000  Level Indianapolis Center
Wed 15:13:24 39.1389 -84.4225 317° Northwest 147 272 12,000  Level Indianapolis Center
Wed 15:14:26 39.1700 -84.4589 318° Northwest 150 278 12,000 -194 Level Indianapolis Center
Wed 15:15:28 39.2011 -84.4964 317° Northwest 152 282 11,600 -387 Descending Indianapolis Center
Wed 15:16:30 39.2350 -84.5381 316° Northwest 161 298 11,200 -484 Descending Indianapolis Center
Wed 15:17:32 39.2767 -84.5872 318° Northwest 167 309 10,600 -629 Descending Indianapolis Center
Wed 15:18:34 39.3125 -84.6311 317° Northwest 171 317 9,900 -690 Descending Indianapolis Center
Wed 15:18:59 39.3333 -84.6500 325° Northwest 178 330 9,600 -593 Descending Cincinnati TRACON
Wed 15:20:05 39.3667 -84.7000 311° West 179 332 9,000 -545 Descending Cincinnati TRACON
Wed 15:20:38 39.3856 -84.7203 320° Northwest 177 328 8,700 -505 Descending Indianapolis Center
Wed 15:21:40 39.4217 -84.7631 318° Northwest 177 328 8,200 -339 Descending Indianapolis Center
Wed 15:22:42 39.4550 -84.8058 315° West 173 320 8,000 -97 Descending Indianapolis Center
Wed 15:23:44 39.4825 -84.8433 314° West 162 299 8,000  Level Indianapolis Center
Wed 15:24:46 39.5136 -84.8778 320° Northwest 152 282 8,000 -290 Level Indianapolis Center
Wed 15:25:48 39.5475 -84.9206 316° Northwest 146 270 7,400 -581 Descending Indianapolis Center
Wed 15:26:50 39.5831 -84.9606 319° Northwest 154 285 6,800 -581 Descending Indianapolis Center
Wed 15:27:52 39.6211 -84.9981 323° Northwest 161 298 6,200 -629 Descending Indianapolis Center
Wed 15:28:54 39.6603 -85.0356 324° Northwest 167 309 5,500 -677 Descending Indianapolis Center
Wed 15:29:56 39.6972 -85.0742 321° Northwest 169 312 4,800 -762 Descending Indianapolis Center
Wed 15:31:55 39.7833 -85.1333 332° Northwest 181 335 3,200 -584 Descending Indianapolis TRACON
Wed 15:33:01 39.8333 -85.1667 333° Northwest 150 278 3,000 -190 Descending Indianapolis TRACON
Wed 15:34:01 39.8500 -85.2000 303° West 130 241 2,800 -200 Descending Indianapolis TRACON

Login

Don't have an account? Register now (free) for customized features, flight alerts, and more!